Time;durP1;ratioP1;P1;durP2;ratioP2;P2;SDS_P1;SDS_P2;PMS_P1;PMS_P2;Temp;Humidity;BMP_temperature;BMP_pressure;BME280_temperature;BME280_humidity;BME280_pressure;Samples;Min_cycle;Max_cycle;Signal;HPM_P1;HPM_P2
2021/03/26 00:01:10;;;;;;;6.97;5.35;;;;;;;30.93;46.00;100901.59;5026670;28;70038;-33
2021/03/26 00:03:42;;;;;;;9.85;5.63;;;;;;;30.97;46.54;100902.81;5038927;28;65409;-34
2021/03/26 00:06:18;;;;;;;8.95;5.47;;;;;;;31.00;46.80;100901.53;5033017;28;69083;-32
2021/03/26 00:08:51;;;;;;;11.13;5.68;;;;;;;31.11;47.40;100920.59;5040070;28;65819;-32
2021/03/26 00:11:26;;;;;;;15.77;5.70;;;;;;;31.10;47.97;100913.53;5021647;28;69287;-33
2021/03/26 00:13:56;;;;;;;19.75;6.20;;;;;;;31.26;48.69;100943.84;5034957;28;66029;-33
2021/03/26 00:16:26;;;;;;;12.38;6.15;;;;;;;31.22;48.79;100934.50;5033442;27;69270;-32
2021/03/26 00:18:56;;;;;;;29.77;8.50;;;;;;;31.30;48.87;100950.47;5050692;28;66188;-33
2021/03/26 00:21:25;;;;;;;22.73;8.38;;;;;;;31.32;49.34;100953.81;5035208;28;69977;-32
2021/03/26 00:23:55;;;;;;;15.05;7.32;;;;;;;31.36;49.81;100955.03;5034135;28;66156;-32
2021/03/26 00:26:41;;;;;;;18.83;7.45;;;;;;;31.38;49.67;100958.38;5046900;28;70529;-32
2021/03/26 00:29:20;;;;;;;24.42;6.80;;;;;;;31.32;49.77;100956.53;5037891;28;65622;-33
2021/03/26 00:31:50;;;;;;;20.70;6.95;;;;;;;31.30;50.36;100955.91;5043884;28;68709;-32
2021/03/26 00:34:28;;;;;;;19.23;6.70;;;;;;;31.16;49.80;100947.88;5036796;28;65592;-32
2021/03/26 00:36:59;;;;;;;15.85;6.57;;;;;;;31.25;49.87;100963.88;5036619;28;69114;-33
2021/03/26 00:39:28;;;;;;;25.58;6.50;;;;;;;31.27;49.26;100967.19;5037431;28;66058;-31
2021/03/26 00:41:58;;;;;;;17.63;7.30;;;;;;;31.23;49.68;100968.66;5039185;28;70149;-32
2021/03/26 00:44:28;;;;;;;16.75;6.88;;;;;;;31.28;49.74;100976.97;5041701;28;65450;-32
2021/03/26 00:46:57;;;;;;;14.95;7.20;;;;;;;31.29;49.53;100981.34;5035254;28;70203;-32
2021/03/26 00:49:27;;;;;;;13.02;6.30;;;;;;;31.33;49.03;100983.38;5036506;28;65954;-31
2021/03/26 00:51:57;;;;;;;17.85;6.03;;;;;;;31.35;49.04;100985.88;5035860;28;69857;-33
2021/03/26 00:54:30;;;;;;;14.45;5.57;;;;;;;31.34;49.01;100984.22;5042194;28;66624;-33
2021/03/26 00:56:59;;;;;;;12.18;6.22;;;;;;;31.39;48.27;100989.84;5032353;28;69942;-33
2021/03/26 00:59:42;;;;;;;9.48;5.95;;;;;;;31.36;48.60;100987.56;5049692;28;66186;-32
2021/03/26 01:02:15;;;;;;;13.60;6.05;;;;;;;31.42;48.66;100992.09;5032819;28;70619;-33
2021/03/26 01:04:44;;;;;;;21.38;5.75;;;;;;;31.41;48.34;100995.88;5037283;28;66197;-32
2021/03/26 01:07:14;;;;;;;11.82;7.13;;;;;;;31.48;47.73;101006.66;5018869;28;68712;-32
2021/03/26 01:09:43;;;;;;;7.03;5.75;;;;;;;31.46;48.41;101008.78;5032209;28;65809;-32
2021/03/26 01:12:13;;;;;;;8.80;5.63;;;;;;;31.45;47.82;101017.94;5044079;28;70383;-33
2021/03/26 01:14:43;;;;;;;9.00;6.10;;;;;;;31.43;48.26;101007.34;5031215;28;66264;-32
2021/03/26 01:17:13;;;;;;;16.23;6.85;;;;;;;31.47;47.95;101026.69;5035804;28;69442;-32
2021/03/26 01:19:47;;;;;;;13.25;8.30;;;;;;;31.50;48.13;101026.25;5049631;28;66214;-32
2021/03/26 01:22:17;;;;;;;11.57;8.30;;;;;;;31.53;47.34;101020.38;5047924;28;70302;-33
2021/03/26 01:24:46;;;;;;;9.68;7.72;;;;;;;31.52;47.42;101022.25;5051494;28;65653;-33
2021/03/26 01:27:19;;;;;;;14.98;8.15;;;;;;;31.50;47.73;101021.66;5039340;28;69980;-32
2021/03/26 01:30:09;;;;;;;15.45;7.13;;;;;;;31.54;47.93;101028.31;5048472;27;65525;-33
2021/03/26 01:32:38;;;;;;;10.38;7.47;;;;;;;31.55;47.19;101035.38;5043648;28;70657;-33
2021/03/26 01:35:11;;;;;;;11.57;7.15;;;;;;;31.58;47.12;101034.94;5029735;28;65997;-32
2021/03/26 01:37:43;;;;;;;12.13;6.95;;;;;;;31.53;47.16;101026.63;5042551;28;70129;-32
2021/03/26 01:40:21;;;;;;;12.70;7.68;;;;;;;31.59;47.55;101035.75;5055370;28;65757;-34
2021/03/26 01:42:50;;;;;;;10.30;7.43;;;;;;;31.63;47.28;101036.16;5048952;28;69635;-33
2021/03/26 01:45:25;;;;;;;8.15;7.03;;;;;;;31.66;46.90;101041.13;5051849;28;66250;-35
2021/03/26 01:47:56;;;;;;;7.97;7.22;;;;;;;31.57;47.03;101011.59;5038877;28;69320;-33
2021/03/26 01:50:31;;;;;;;14.68;7.30;;;;;;;31.72;47.11;101037.53;5039352;28;65358;-32
2021/03/26 01:53:03;;;;;;;10.73;7.40;;;;;;;31.71;47.15;101030.47;5034663;28;70208;-32
2021/03/26 01:55:44;;;;;;;10.07;6.93;;;;;;;31.73;47.07;101036.47;5019177;28;66665;-32
2021/03/26 01:58:20;;;;;;;8.98;7.22;;;;;;;31.78;47.47;101039.34;5041547;28;69289;-32
2021/03/26 02:01:06;;;;;;;11.45;7.25;;;;;;;31.78;46.75;101039.34;5016731;28;66152;-33
2021/03/26 02:03:42;;;;;;;11.85;7.05;;;;;;;31.84;46.63;101033.03;5047516;28;70478;-33
2021/03/26 02:06:23;;;;;;;20.17;7.38;;;;;;;31.87;46.97;101037.19;5024089;28;66904;-32
2021/03/26 02:09:08;;;;;;;7.72;6.55;;;;;;;31.82;46.72;101021.59;5040239;28;70057;-33
2021/03/26 02:12:00;;;;;;;9.98;6.35;;;;;;;31.78;46.17;101009.50;5049760;28;65993;-32
2021/03/26 02:14:37;;;;;;;7.90;6.78;;;;;;;31.95;46.54;101040.47;5063542;27;69331;-33
2021/03/26 02:17:09;;;;;;;9.57;6.40;;;;;;;31.98;46.57;101034.63;5048909;28;65341;-33
2021/03/26 02:19:57;;;;;;;7.68;6.78;;;;;;;32.02;46.09;101035.81;5014391;28;69235;-33
2021/03/26 02:22:31;;;;;;;7.85;6.40;;;;;;;32.07;46.27;101031.56;5007596;28;66038;-33
2021/03/26 02:25:02;;;;;;;7.32;6.57;;;;;;;32.12;46.34;101039.88;5035185;28;70230;-33
2021/03/26 02:27:36;;;;;;;7.80;6.10;;;;;;;32.16;46.20;101041.09;5039344;28;66085;-32
2021/03/26 02:30:18;;;;;;;8.45;6.32;;;;;;;32.04;46.22;101012.00;5054020;28;69385;-33
2021/03/26 02:32:51;;;;;;;10.68;6.43;;;;;;;32.27;45.49;101037.63;5050472;28;66032;-32
2021/03/26 02:35:41;;;;;;;6.75;6.18;;;;;;;32.25;45.76;101029.72;5043065;28;69998;-32
2021/03/26 02:38:52;;;;;;;14.80;6.80;;;;;;;32.34;45.62;101027.50;5027096;28;66143;-32
2021/03/26 02:41:50;;;;;;;6.28;5.72;;;;;;;32.33;45.45;101020.44;5041358;28;70194;-33
2021/03/26 02:44:48;;;;;;;7.18;6.47;;;;;;;32.30;45.46;101006.50;5035737;28;66649;-35
2021/03/26 02:47:41;;;;;;;7.72;6.93;;;;;;;32.46;45.40;101023.03;5029871;28;69654;-33
2021/03/26 02:50:47;;;;;;;6.63;6.00;;;;;;;32.49;45.61;101024.47;5049043;27;66166;-33
2021/03/26 02:53:33;;;;;;;7.10;6.32;;;;;;;32.47;45.32;101013.81;5045618;28;69781;-34
2021/03/26 02:56:08;;;;;;;6.87;6.17;;;;;;;32.58;45.29;101019.53;5045106;28;65529;-32
2021/03/26 02:58:48;;;;;;;6.90;6.00;;;;;;;32.58;45.27;101016.81;5049706;28;69302;-32
2021/03/26 03:01:33;;;;;;;11.38;6.55;;;;;;;32.64;45.10;101015.91;5045128;28;66246;-33
2021/03/26 03:04:30;;;;;;;9.80;6.32;;;;;;;32.68;45.09;101017.09;5018651;28;69001;-32
2021/03/26 03:07:41;;;;;;;7.68;6.10;;;;;;;32.67;45.11;101012.72;5038271;28;64616;-33
2021/03/26 03:11:03;;;;;;;6.63;6.00;;;;;;;32.74;45.09;101013.47;5041188;28;69716;-32
2021/03/26 03:14:11;;;;;;;8.18;6.38;;;;;;;32.82;45.50;101018.59;5030466;28;66267;-32
2021/03/26 03:16:49;;;;;;;7.03;6.30;;;;;;;32.85;44.63;101007.25;5016465;28;68487;-32
2021/03/26 03:19:41;;;;;;;8.52;5.65;;;;;;;32.87;44.74;101004.31;5039451;28;67018;-34
2021/03/26 03:22:26;;;;;;;7.90;5.88;;;;;;;32.87;45.04;100994.25;5040766;28;70522;-34
2021/03/26 03:25:08;;;;;;;7.68;6.00;;;;;;;32.84;44.82;100988.47;5070004;27;66074;-33
2021/03/26 03:27:56;;;;;;;6.68;5.95;;;;;;;32.92;44.71;100991.69;5037523;28;69948;-33
2021/03/26 03:30:33;;;;;;;7.25;6.10;;;;;;;33.04;44.65;100989.03;5042871;28;65323;-32
2021/03/26 03:33:09;;;;;;;8.68;6.60;;;;;;;33.05;44.53;100984.44;5041393;27;69198;-33
2021/03/26 03:36:01;;;;;;;6.28;5.70;;;;;;;33.09;44.80;100986.44;5030919;28;66282;-33
2021/03/26 03:39:03;;;;;;;6.68;6.18;;;;;;;33.07;44.83;100985.00;5022960;28;70360;-37
2021/03/26 03:42:32;;;;;;;6.63;5.57;;;;;;;33.15;44.56;100971.06;5068693;27;66775;-33
2021/03/26 03:45:41;;;;;;;9.52;6.45;;;;;;;33.17;44.32;100960.81;5031849;28;70262;-33
2021/03/26 03:48:41;;;;;;;7.72;4.95;;;;;;;33.27;44.32;100960.25;5065414;27;66292;-32
2021/03/26 03:51:22;;;;;;;9.75;6.10;;;;;;;33.29;44.10;100952.66;5045889;28;69302;-32
2021/03/26 03:54:01;;;;;;;6.95;6.35;;;;;;;33.17;43.95;100914.59;5048799;28;66219;-34
2021/03/26 03:56:36;;;;;;;6.70;6.10;;;;;;;33.35;43.71;100935.44;5039135;28;69107;-32
2021/03/26 03:59:24;;;;;;;6.35;5.75;;;;;;;33.35;43.98;100936.25;5040317;28;66280;-33
2021/03/26 04:02:17;;;;;;;6.80;5.72;;;;;;;33.34;43.83;100918.25;5054232;28;69320;-35
2021/03/26 04:05:15;;;;;;;8.35;6.13;;;;;;;33.41;44.01;100922.78;5071204;27;67047;-32
2021/03/26 04:08:32;;;;;;;8.68;5.35;;;;;;;33.44;44.02;100912.25;5039424;27;70058;-32
2021/03/26 04:11:58;;;;;;;6.47;5.88;;;;;;;33.49;43.82;100909.66;5041539;28;66341;-34
2021/03/26 04:15:12;;;;;;;7.78;5.55;;;;;;;33.56;43.50;100904.09;4990451;28;69865;-33
2021/03/26 04:18:07;;;;;;;5.90;5.38;;;;;;;33.58;43.74;100885.66;5021675;28;66001;-33
2021/03/26 04:21:18;;;;;;;6.50;5.90;;;;;;;33.60;43.70;100883.53;5033355;28;69405;-32
2021/03/26 04:24:34;;;;;;;7.57;5.22;;;;;;;33.66;43.38;100860.00;5015287;28;64868;-33
2021/03/26 04:27:24;;;;;;;7.88;5.70;;;;;;;33.69;43.59;100854.91;5034751;28;69868;-33
2021/03/26 04:30:35;;;;;;;6.03;5.50;;;;;;;33.72;43.38;100848.16;5025865;28;65430;-34
2021/03/26 04:33:18;;;;;;;6.15;5.53;;;;;;;33.75;43.65;100842.22;5028777;28;69249;-32
2021/03/26 04:35:51;;;;;;;7.28;5.70;;;;;;;33.78;43.50;100833.56;5025430;28;65903;-33
2021/03/26 04:38:48;;;;;;;5.78;5.30;;;;;;;33.84;43.44;100831.78;5029254;28;70203;-32
2021/03/26 04:41:48;;;;;;;5.90;5.15;;;;;;;33.84;43.09;100819.00;5030806;28;67056;-32
2021/03/26 04:44:55;;;;;;;7.13;5.60;;;;;;;33.87;43.21;100817.69;5043483;28;70068;-33
2021/03/26 04:48:14;;;;;;;6.97;4.93;;;;;;;33.91;43.35;100813.44;5013318;28;66328;-33
2021/03/26 04:51:07;;;;;;;5.72;5.13;;;;;;;33.98;43.09;100800.50;5018917;28;70466;-32
2021/03/26 04:54:21;;;;;;;5.78;5.20;;;;;;;34.01;42.83;100798.09;5020757;28;65385;-34
2021/03/26 04:57:25;;;;;;;6.93;5.13;;;;;;;34.04;43.00;100788.63;5033632;28;69901;-33
2021/03/26 05:00:06;;;;;;;6.20;4.93;;;;;;;34.07;43.08;100780.00;5016574;28;66715;-33
2021/03/26 05:03:00;;;;;;;5.57;5.18;;;;;;;33.96;43.09;100750.91;5060243;27;70485;-32
2021/03/26 05:05:37;;;;;;;5.68;5.22;;;;;;;34.14;42.90;100771.69;5036399;28;66925;-33
2021/03/26 05:08:24;;;;;;;7.18;4.95;;;;;;;34.15;42.79;100763.25;5059417;27;69580;-33
2021/03/26 05:11:15;;;;;;;6.47;5.22;;;;;;;34.17;42.64;100752.97;5033975;28;65771;-32
2021/03/26 05:13:53;;;;;;;7.07;5.60;;;;;;;34.23;42.64;100751.16;5016998;28;70017;-32
2021/03/26 05:16:43;;;;;;;5.28;4.88;;;;;;;34.24;42.34;100740.03;5048467;28;65029;-35
2021/03/26 05:20:11;;;;;;;9.20;4.97;;;;;;;34.29;42.59;100733.00;5039928;28;69331;-33
2021/03/26 05:23:11;;;;;;;5.50;4.78;;;;;;;34.33;42.68;100735.00;5036022;28;66487;-33
2021/03/26 05:26:00;;;;;;;5.30;4.80;;;;;;;34.37;42.45;100727.16;5046780;28;70501;-33
2021/03/26 05:28:44;;;;;;;4.72;4.32;;;;;;;34.41;42.60;100720.16;5050001;28;65098;-34
2021/03/26 05:31:36;;;;;;;5.53;4.63;;;;;;;34.41;42.37;100707.34;5041662;28;69193;-32
2021/03/26 05:34:36;;;;;;;5.30;4.85;;;;;;;34.32;42.40;100680.78;5030948;28;65580;-33
2021/03/26 05:37:24;;;;;;;5.35;4.90;;;;;;;34.51;42.27;100692.22;5036886;28;69247;-34
2021/03/26 05:40:42;;;;;;;4.70;4.30;;;;;;;34.40;42.29;100674.91;5034552;28;66817;-33
2021/03/26 05:43:53;;;;;;;4.78;4.47;;;;;;;34.55;42.36;100677.88;5039595;28;69255;-34
2021/03/26 05:46:35;;;;;;;5.50;4.45;;;;;;;34.61;41.84;100671.44;5033708;28;65344;-33
2021/03/26 05:49:45;;;;;;;5.38;4.88;;;;;;;34.66;41.86;100663.34;5030788;28;69803;-33
2021/03/26 05:52:35;;;;;;;5.07;4.57;;;;;;;34.66;41.98;100662.53;5081438;27;66291;-39
2021/03/26 05:55:27;;;;;;;5.05;4.65;;;;;;;34.68;41.86;100654.91;5028882;28;68886;-35
2021/03/26 05:58:19;;;;;;;10.88;4.07;;;;;;;34.69;41.93;100651.94;5030345;28;66230;-33
2021/03/26 06:01:18;;;;;;;4.78;4.38;;;;;;;34.78;41.52;100649.59;5020987;28;70140;-33
2021/03/26 06:04:30;;;;;;;5.20;4.70;;;;;;;34.81;41.57;100648.28;5038778;28;65404;-33
2021/03/26 06:08:06;;;;;;;5.07;4.32;;;;;;;34.86;41.82;100645.63;5067897;27;70097;-33
2021/03/26 06:11:24;;;;;;;4.43;4.03;;;;;;;34.92;41.43;100628.25;5013153;28;63773;-33
2021/03/26 06:15:03;;;;;;;4.85;4.18;;;;;;;34.94;41.50;100637.00;5014586;28;69244;-34
2021/03/26 06:18:01;;;;;;;5.55;4.35;;;;;;;35.00;41.49;100624.25;5012253;28;66646;-39
2021/03/26 06:21:10;;;;;;;5.30;4.53;;;;;;;35.01;41.40;100615.00;5035988;27;70318;-32
2021/03/26 06:24:26;;;;;;;4.68;4.38;;;;;;;35.03;41.01;100619.13;5039140;27;64785;-34
2021/03/26 06:27:28;;;;;;;6.07;3.95;;;;;;;35.10;41.05;100610.75;5021590;28;70131;-33
2021/03/26 06:30:04;;;;;;;5.03;4.00;;;;;;;35.18;40.98;100612.22;5037337;28;65516;-34
2021/03/26 06:33:06;;;;;;;5.57;4.38;;;;;;;35.20;41.01;100607.34;5033812;28;69758;-33
2021/03/26 06:35:55;;;;;;;4.25;3.85;;;;;;;35.14;40.82;100601.81;5034137;28;65337;-33
2021/03/26 06:38:31;;;;;;;3.88;3.58;;;;;;;35.24;40.99;100600.28;5037629;28;70306;-37
2021/03/26 06:41:56;;;;;;;5.22;4.72;;;;;;;35.24;40.67;100584.72;5035090;28;65860;-34
2021/03/26 06:45:04;;;;;;;3.88;3.58;;;;;;;35.06;40.65;100542.31;5029238;28;69714;-32
2021/03/26 06:47:58;;;;;;;4.22;3.85;;;;;;;35.22;40.61;100553.38;5018659;28;66853;-34
2021/03/26 06:51:04;;;;;;;4.00;3.70;;;;;;;35.41;40.40;100581.94;5036606;28;70101;-33
2021/03/26 06:54:01;;;;;;;8.02;4.05;;;;;;;35.47;40.45;100580.06;5033435;28;66925;-33
2021/03/26 06:56:49;;;;;;;5.65;3.92;;;;;;;35.33;40.46;100546.94;5033422;28;70302;-34
2021/03/26 06:59:53;;;;;;;3.92;3.60;;;;;;;35.55;40.42;100574.97;5032273;28;66549;-33
2021/03/26 07:02:47;;;;;;;4.63;4.05;;;;;;;35.59;40.63;100578.00;5024252;28;69417;-33
2021/03/26 07:05:32;;;;;;;4.18;3.78;;;;;;;35.60;40.12;100566.00;5032413;28;65360;-33
2021/03/26 07:08:22;;;;;;;4.18;3.78;;;;;;;35.66;40.64;100572.31;5034762;27;69651;-33
2021/03/26 07:10:58;;;;;;;4.25;3.85;;;;;;;35.70;40.47;100570.75;5031913;28;66604;-32
2021/03/26 07:13:42;;;;;;;8.30;3.80;;;;;;;35.72;40.40;100563.13;5069065;27;68074;-34
2021/03/26 07:16:30;;;;;;;3.67;3.33;;;;;;;35.75;40.40;100570.78;5054441;28;65056;-33
2021/03/26 07:19:21;;;;;;;6.65;3.78;;;;;;;35.80;40.03;100568.06;5019560;28;69867;-40
2021/03/26 07:22:26;;;;;;;4.15;3.75;;;;;;;35.82;40.21;100570.53;5033258;28;65505;-33
2021/03/26 07:25:39;;;;;;;3.67;3.28;;;;;;;35.86;39.97;100558.84;5025063;28;69262;-35
2021/03/26 07:28:37;;;;;;;7.43;3.70;;;;;;;35.89;40.10;100555.59;5033729;28;66259;-34
2021/03/26 07:31:30;;;;;;;4.28;3.42;;;;;;;35.93;39.86;100562.16;5032865;28;70502;-33
2021/03/26 07:34:25;;;;;;;4.45;3.60;;;;;;;35.95;39.99;100549.09;5034044;28;65917;-35
2021/03/26 07:37:19;;;;;;;4.30;3.30;;;;;;;36.01;40.28;100545.28;5035886;28;70716;-33
2021/03/26 07:40:12;;;;;;;3.85;3.38;;;;;;;36.07;40.28;100539.91;5033732;28;65690;-33
2021/03/26 07:43:14;;;;;;;5.82;3.65;;;;;;;36.11;40.04;100532.81;5023193;28;69853;-33
2021/03/26 07:46:17;;;;;;;4.40;3.55;;;;;;;36.16;40.18;100530.97;5025541;28;65878;-34
2021/03/26 07:48:49;;;;;;;9.20;3.70;;;;;;;36.19;40.05;100532.31;5034644;28;71331;-34
2021/03/26 07:51:26;;;;;;;3.92;3.53;;;;;;;36.22;40.26;100527.16;5036530;28;65294;-34
2021/03/26 07:54:35;;;;;;;5.05;3.38;;;;;;;36.26;39.90;100521.97;5024284;28;69208;-33
2021/03/26 07:57:31;;;;;;;8.48;3.40;;;;;;;36.33;39.77;100528.03;5018937;28;66030;-34
2021/03/26 08:00:24;;;;;;;4.32;3.90;;;;;;;36.36;39.74;100516.56;5013284;28;69188;-33
2021/03/26 08:03:17;;;;;;;6.50;3.30;;;;;;;36.42;40.07;100525.63;5034697;28;65498;-32
2021/03/26 08:05:59;;;;;;;7.20;3.53;;;;;;;36.44;39.71;100518.78;5035483;28;68815;-32
2021/03/26 08:08:39;;;;;;;;;;;;;;;36.50;39.94;100521.53;5035115;28;66331;-33
2021/03/26 08:11:30;;;;;;;5.53;3.28;;;;;;;36.55;39.26;100516.94;5036765;28;69886;-33
2021/03/26 08:14:09;;;;;;;7.30;3.63;;;;;;;36.60;39.92;100519.69;5031415;28;66776;-34
2021/03/26 08:17:00;;;;;;;4.38;3.42;;;;;;;36.66;39.48;100520.53;5035820;28;69951;-32
2021/03/26 08:19:44;;;;;;;6.68;3.45;;;;;;;36.68;39.83;100518.34;5021818;28;66084;-33
2021/03/26 08:22:34;;;;;;;5.55;3.70;;;;;;;36.73;39.90;100523.84;5034537;28;69305;-33
2021/03/26 08:25:25;;;;;;;6.13;3.05;;;;;;;36.76;39.10;100528.75;5035241;28;65201;-33
2021/03/26 08:28:18;;;;;;;5.45;3.45;;;;;;;36.76;39.72;100526.03;5023482;28;69835;-33
2021/03/26 08:31:04;;;;;;;5.18;3.28;;;;;;;36.83;39.30;100521.13;5035206;28;65795;-34
2021/03/26 08:34:15;;;;;;;6.30;3.75;;;;;;;36.85;39.35;100524.41;5026668;28;69717;-34
2021/03/26 08:37:17;;;;;;;4.85;3.38;;;;;;;36.88;39.39;100525.78;5031223;28;65873;-33
2021/03/26 08:39:54;;;;;;;6.10;3.42;;;;;;;36.90;39.70;100510.75;5007747;28;69918;-34
2021/03/26 08:42:34;;;;;;;7.60;3.20;;;;;;;37.04;39.64;100526.66;5030922;28;66041;-33
2021/03/26 08:45:13;;;;;;;7.95;3.45;;;;;;;37.11;39.03;100521.72;5063515;28;69045;-32
2021/03/26 08:47:59;;;;;;;3.97;3.28;;;;;;;37.14;39.16;100521.22;5032568;28;65984;-34
2021/03/26 08:50:43;;;;;;;4.15;3.75;;;;;;;37.20;39.39;100520.13;5031296;28;71338;-33
2021/03/26 08:53:51;;;;;;;5.05;3.75;;;;;;;37.15;38.85;100511.91;5032977;28;66630;-33
2021/03/26 08:56:39;;;;;;;5.10;3.22;;;;;;;37.27;38.69;100512.44;5032239;28;70784;-33
2021/03/26 08:59:51;;;;;;;9.93;3.35;;;;;;;37.29;38.54;100518.47;5033950;28;66148;-35
2021/03/26 09:02:38;;;;;;;5.93;3.28;;;;;;;37.32;39.11;100526.13;5019921;28;70324;-37
2021/03/26 09:05:31;;;;;;;7.18;3.67;;;;;;;37.35;38.59;100528.31;5032661;28;66889;-33
2021/03/26 09:08:12;;;;;;;4.43;3.80;;;;;;;37.42;38.92;100532.69;5031756;28;69953;-33
2021/03/26 09:11:07;;;;;;;3.50;3.17;;;;;;;37.42;39.28;100532.69;5033366;28;66436;-33
2021/03/26 09:13:59;;;;;;;6.70;3.38;;;;;;;37.48;38.88;100537.09;5034869;28;69992;-32
2021/03/26 09:16:35;;;;;;;10.15;3.50;;;;;;;37.50;38.60;100540.38;5029685;28;64968;-34
2021/03/26 09:19:25;;;;;;;5.25;3.53;;;;;;;37.50;38.37;100530.28;5032548;28;69436;-33
2021/03/26 09:22:23;;;;;;;9.30;3.25;;;;;;;37.53;38.43;100535.22;5025982;28;66262;-32
2021/03/26 09:25:39;;;;;;;7.10;3.50;;;;;;;37.54;38.89;100538.75;5023258;28;69902;-33
2021/03/26 09:28:23;;;;;;;4.70;3.08;;;;;;;37.57;38.40;100540.94;5028431;28;66181;-33
2021/03/26 09:31:15;;;;;;;3.75;3.10;;;;;;;37.54;38.70;100536.03;5030246;28;69690;-33
2021/03/26 09:34:00;;;;;;;;;;;;;;;37.59;38.24;100544.25;5030610;28;66845;-36
2021/03/26 09:36:40;;;;;;;4.85;3.25;;;;;;;37.61;38.49;100542.03;5030990;28;68931;-34
2021/03/26 09:39:21;;;;;;;6.50;3.38;;;;;;;37.56;38.62;100545.59;5032170;28;65377;-34
2021/03/26 09:41:54;;;;;;;7.97;3.77;;;;;;;37.61;38.56;100546.69;5015577;28;70110;-33
2021/03/26 09:45:11;;;;;;;9.20;3.30;;;;;;;37.59;38.94;100549.72;5032908;28;65875;-35
2021/03/26 09:47:49;;;;;;;3.97;3.45;;;;;;;37.58;38.72;100552.72;5004273;28;70331;-34
2021/03/26 09:50:36;;;;;;;7.40;3.47;;;;;;;37.60;38.60;100565.03;5030371;28;65733;-32
2021/03/26 09:53:14;;;;;;;5.88;3.90;;;;;;;37.56;39.02;100556.56;5036726;28;70025;-33
2021/03/26 09:55:45;;;;;;;10.40;3.55;;;;;;;37.45;39.16;100548.59;5031748;28;65957;-35
2021/03/26 09:58:29;;;;;;;9.10;3.50;;;;;;;37.52;38.98;100571.03;5036658;28;69288;-33
2021/03/26 10:01:18;;;;;;;5.75;3.80;;;;;;;37.51;38.53;100572.16;5036323;28;66066;-33
2021/03/26 10:03:59;;;;;;;6.65;3.20;;;;;;;37.49;38.37;100566.94;5037074;28;69501;-33
2021/03/26 10:06:46;;;;;;;4.93;3.05;;;;;;;37.52;38.53;100571.03;5034310;28;66082;-34
2021/03/26 10:09:45;;;;;;;12.88;3.95;;;;;;;37.49;38.65;100568.84;5037738;28;69247;-33
2021/03/26 10:12:26;;;;;;;5.47;3.80;;;;;;;37.48;38.46;100575.41;5036965;28;65945;-33
2021/03/26 10:14:55;;;;;;;11.80;3.78;;;;;;;37.46;39.04;100572.09;5037072;28;70297;-34
2021/03/26 10:17:41;;;;;;;6.82;4.13;;;;;;;37.44;38.91;100580.56;5038791;27;66213;-33
2021/03/26 10:20:23;;;;;;;10.18;3.55;;;;;;;37.31;39.31;100576.47;5036529;28;69093;-33
2021/03/26 10:23:19;;;;;;;4.63;3.30;;;;;;;37.38;39.19;100586.31;5039075;28;65776;-34
2021/03/26 10:26:02;;;;;;;7.95;4.05;;;;;;;37.39;39.34;100596.16;5027405;28;70661;-33
2021/03/26 10:28:35;;;;;;;7.97;3.75;;;;;;;37.35;38.81;100599.44;5024128;28;66007;-32
2021/03/26 10:31:38;;;;;;;7.30;3.97;;;;;;;37.18;39.06;100571.53;5031761;28;69993;-34
2021/03/26 10:34:16;;;;;;;4.85;3.60;;;;;;;37.31;39.38;100601.09;5028576;28;65699;-36
2021/03/26 10:37:00;;;;;;;14.43;4.45;;;;;;;37.16;39.96;100601.06;5032588;28;70660;-34
2021/03/26 10:39:59;;;;;;;19.08;4.70;;;;;;;36.85;41.27;100575.53;5019405;28;66327;-34
2021/03/26 10:42:37;;;;;;;9.23;4.97;;;;;;;36.89;41.20;100607.53;5020512;28;69987;-33
2021/03/26 10:45:25;;;;;;;17.33;5.88;;;;;;;36.72;42.06;100608.81;5033932;28;67009;-34
2021/03/26 10:48:18;;;;;;;15.20;4.72;;;;;;;36.54;42.44;100615.56;5032482;28;70529;-33
2021/03/26 10:50:56;;;;;;;13.75;5.07;;;;;;;36.44;42.74;100621.75;5028307;28;65286;-34
2021/03/26 10:53:29;;;;;;;22.42;5.13;;;;;;;36.34;41.63;100614.34;5034213;28;69783;-35
2021/03/26 10:56:10;;;;;;;14.10;5.75;;;;;;;36.27;42.69;100627.38;5033959;28;65456;-34
2021/03/26 10:58:46;;;;;;;13.40;5.67;;;;;;;36.26;42.82;100620.28;5016535;28;69266;-35
2021/03/26 11:01:21;;;;;;;13.18;5.47;;;;;;;36.27;42.93;100624.66;5032732;28;66770;-33
2021/03/26 11:04:04;;;;;;;8.65;4.88;;;;;;;36.19;43.45;100625.16;5030136;28;69772;-35
2021/03/26 11:06:44;;;;;;;9.32;5.20;;;;;;;36.00;43.50;100606.44;5033405;28;66396;-34
2021/03/26 11:09:19;;;;;;;6.80;4.60;;;;;;;36.11;43.72;100631.09;5031790;28;70292;-34
2021/03/26 11:12:06;;;;;;;9.40;5.22;;;;;;;36.05;43.93;100634.84;5033720;28;66028;-35
2021/03/26 11:14:47;;;;;;;13.15;4.78;;;;;;;36.08;44.20;100639.81;5024030;28;69693;-33
2021/03/26 11:17:42;;;;;;;11.70;5.53;;;;;;;36.02;44.09;100642.50;5025887;28;65791;-34
2021/03/26 11:20:30;;;;;;;11.10;6.20;;;;;;;36.00;43.46;100649.31;5026421;28;70166;-33
2021/03/26 11:23:11;;;;;;;14.32;6.28;;;;;;;35.98;43.69;100651.47;5029628;28;43289;-34
2021/03/26 11:25:48;;;;;;;14.65;6.78;;;;;;;35.95;43.42;100647.34;5025012;28;70987;-35
2021/03/26 11:28:24;;;;;;;14.70;7.15;;;;;;;35.87;43.34;100649.75;5023731;28;66135;-34
2021/03/26 11:30:56;;;;;;;17.75;7.10;;;;;;;35.88;43.68;100657.66;5024482;28;71599;-33
2021/03/26 11:33:38;;;;;;;18.90;7.38;;;;;;;35.85;43.63;100663.63;5026676;28;66677;-35
2021/03/26 11:36:31;;;;;;;12.32;6.70;;;;;;;35.82;43.85;100655.16;5025008;28;69330;-35
2021/03/26 11:39:16;;;;;;;;;;;;;;;35.86;43.61;100662.56;5023029;28;66371;-34
2021/03/26 11:42:03;;;;;;;15.55;7.97;;;;;;;35.81;43.29;100657.06;5023949;28;70520;-35
2021/03/26 11:45:17;;;;;;;10.30;7.57;;;;;;;35.81;43.33;100673.44;5026038;28;66666;-35
2021/03/26 11:48:14;;;;;;;11.75;7.43;;;;;;;35.61;42.93;100648.66;5029291;28;68672;-36
2021/03/26 11:50:50;;;;;;;11.75;7.00;;;;;;;35.69;42.80;100675.47;5025618;28;66014;-33
2021/03/26 11:53:31;;;;;;;17.90;6.60;;;;;;;35.62;43.25;100681.16;5024084;28;71009;-34
2021/03/26 11:56:25;;;;;;;17.00;6.70;;;;;;;35.52;43.29;100681.88;5026808;28;66721;-32
2021/03/26 11:59:16;;;;;;;17.92;6.88;;;;;;;35.52;43.52;100689.19;5026534;28;70514;-34
2021/03/26 12:02:17;;;;;;;27.30;6.45;;;;;;;35.38;43.21;100664.22;5023871;28;65495;-35
2021/03/26 12:04:52;;;;;;;10.73;6.00;;;;;;;35.46;43.13;100690.22;5020173;28;68984;-33
2021/03/26 12:07:46;;;;;;;30.95;8.55;;;;;;;35.40;45.08;100694.81;5019876;28;66239;-34
2021/03/26 12:10:38;;;;;;;27.75;8.15;;;;;;;35.26;44.16;100679.94;5010029;28;69336;-33
2021/03/26 12:13:31;;;;;;;16.73;7.05;;;;;;;35.34;44.18;100717.66;5013851;28;66377;-33
2021/03/26 12:16:15;;;;;;;16.05;6.35;;;;;;;35.24;43.47;100714.78;5019917;28;68592;-36
2021/03/26 12:19:02;;;;;;;11.05;5.50;;;;;;;35.02;42.75;100693.81;5054733;27;65627;-38
2021/03/26 12:21:34;;;;;;;21.10;6.15;;;;;;;35.03;41.94;100716.44;5003119;28;69403;-34
2021/03/26 12:24:42;;;;;;;13.20;5.90;;;;;;;34.82;42.26;100726.22;5025956;28;66209;-34
2021/03/26 12:27:25;;;;;;;11.35;6.00;;;;;;;34.67;41.57;100692.22;5008771;28;69910;-40
2021/03/26 12:30:01;;;;;;;15.57;5.25;;;;;;;34.69;41.15;100716.50;5014563;28;66778;-35
2021/03/26 12:32:46;;;;;;;8.40;4.97;;;;;;;34.65;40.61;100735.25;5019481;28;70205;-37
2021/03/26 12:35:28;;;;;;;15.68;5.10;;;;;;;34.57;40.04;100745.72;5026884;28;66095;-40
2021/03/26 12:38:20;;;;;;;8.17;5.20;;;;;;;34.47;39.99;100740.94;5024346;28;70491;-40
2021/03/26 12:40:56;;;;;;;11.18;5.03;;;;;;;34.46;40.29;100744.72;5035322;27;65572;-34
2021/03/26 12:43:31;;;;;;;12.40;4.75;;;;;;;34.40;39.85;100743.81;5023348;28;69325;-35
2021/03/26 12:46:40;;;;;;;6.43;4.47;;;;;;;34.36;39.49;100755.47;5022678;28;65935;-38
2021/03/26 12:49:17;;;;;;;9.30;3.83;;;;;;;34.32;39.44;100759.72;5001605;28;69891;-34
2021/03/26 12:52:01;;;;;;;11.30;4.00;;;;;;;34.07;39.61;100733.72;5024021;28;66355;-37
2021/03/26 12:54:45;;;;;;;6.50;4.30;;;;;;;34.24;39.66;100769.13;5024423;28;70595;-35
2021/03/26 12:57:24;;;;;;;6.20;4.22;;;;;;;34.18;39.26;100768.22;5025890;28;65992;-33
2021/03/26 13:00:09;;;;;;;8.25;4.25;;;;;;;34.13;38.55;100772.75;5024569;28;69257;-35